sensor_id;sensor_type;location;lat;lon;timestamp;temperature;humidity
72814;DHT22;60945;48.516;-2.768;2023-11-22T00:00:30;11.40;83.50
72814;DHT22;60945;48.516;-2.768;2023-11-22T00:02:56;11.40;83.10
72814;DHT22;60945;48.516;-2.768;2023-11-22T00:05:22;11.50;82.60
72814;DHT22;60945;48.516;-2.768;2023-11-22T00:07:48;11.50;81.80
72814;DHT22;60945;48.516;-2.768;2023-11-22T00:10:13;11.50;81.80
72814;DHT22;60945;48.516;-2.768;2023-11-22T00:12:39;11.60;81.20
72814;DHT22;60945;48.516;-2.768;2023-11-22T00:15:06;11.50;79.80
72814;DHT22;60945;48.516;-2.768;2023-11-22T00:17:32;11.60;79.90
72814;DHT22;60945;48.516;-2.768;2023-11-22T00:19:59;11.60;79.60
72814;DHT22;60945;48.516;-2.768;2023-11-22T00:22:27;11.60;78.50
72814;DHT22;60945;48.516;-2.768;2023-11-22T00:24:53;11.60;78.40
72814;DHT22;60945;48.516;-2.768;2023-11-22T00:27:19;11.60;78.50
72814;DHT22;60945;48.516;-2.768;2023-11-22T00:29:44;11.70;78.10
72814;DHT22;60945;48.516;-2.768;2023-11-22T00:32:11;11.70;77.80
72814;DHT22;60945;48.516;-2.768;2023-11-22T00:34:37;11.80;77.90
72814;DHT22;60945;48.516;-2.768;2023-11-22T00:37:03;11.70;78.00
72814;DHT22;60945;48.516;-2.768;2023-11-22T00:39:28;11.70;77.40
72814;DHT22;60945;48.516;-2.768;2023-11-22T00:41:54;11.70;77.40
72814;DHT22;60945;48.516;-2.768;2023-11-22T00:44:21;11.60;76.80
72814;DHT22;60945;48.516;-2.768;2023-11-22T00:46:47;11.70;76.30
72814;DHT22;60945;48.516;-2.768;2023-11-22T00:49:12;11.70;76.60
72814;DHT22;60945;48.516;-2.768;2023-11-22T00:51:38;11.70;75.90
72814;DHT22;60945;48.516;-2.768;2023-11-22T00:54:04;11.80;76.20
72814;DHT22;60945;48.516;-2.768;2023-11-22T00:56:30;11.80;75.80
72814;DHT22;60945;48.516;-2.768;2023-11-22T00:58:56;11.70;75.60
72814;DHT22;60945;48.516;-2.768;2023-11-22T01:01:25;11.80;75.80
72814;DHT22;60945;48.516;-2.768;2023-11-22T01:03:51;11.70;75.50
72814;DHT22;60945;48.516;-2.768;2023-11-22T01:06:16;11.60;75.20
72814;DHT22;60945;48.516;-2.768;2023-11-22T01:08:43;11.60;75.50
72814;DHT22;60945;48.516;-2.768;2023-11-22T01:11:09;11.60;74.80
72814;DHT22;60945;48.516;-2.768;2023-11-22T01:13:35;11.60;74.70
72814;DHT22;60945;48.516;-2.768;2023-11-22T01:16:10;11.70;74.80
72814;DHT22;60945;48.516;-2.768;2023-11-22T01:18:36;11.60;74.10
72814;DHT22;60945;48.516;-2.768;2023-11-22T01:21:02;11.70;74.30
72814;DHT22;60945;48.516;-2.768;2023-11-22T01:23:32;11.70;73.50
72814;DHT22;60945;48.516;-2.768;2023-11-22T01:25:58;11.70;73.80
72814;DHT22;60945;48.516;-2.768;2023-11-22T01:28:27;11.70;73.70
72814;DHT22;60945;48.516;-2.768;2023-11-22T01:30:54;11.70;73.50
72814;DHT22;60945;48.516;-2.768;2023-11-22T01:33:23;11.70;73.80
72814;DHT22;60945;48.516;-2.768;2023-11-22T01:35:49;11.70;73.70
72814;DHT22;60945;48.516;-2.768;2023-11-22T01:38:17;11.70;74.10
72814;DHT22;60945;48.516;-2.768;2023-11-22T01:40:44;11.60;73.80
72814;DHT22;60945;48.516;-2.768;2023-11-22T01:43:18;11.70;73.40
72814;DHT22;60945;48.516;-2.768;2023-11-22T01:45:44;11.80;73.10
72814;DHT22;60945;48.516;-2.768;2023-11-22T01:48:11;11.80;73.40
72814;DHT22;60945;48.516;-2.768;2023-11-22T01:50:40;11.80;73.30
72814;DHT22;60945;48.516;-2.768;2023-11-22T01:53:09;11.80;73.70
72814;DHT22;60945;48.516;-2.768;2023-11-22T01:55:36;11.70;73.80
72814;DHT22;60945;48.516;-2.768;2023-11-22T01:58:02;11.70;73.90
72814;DHT22;60945;48.516;-2.768;2023-11-22T02:00:35;11.70;74.40
72814;DHT22;60945;48.516;-2.768;2023-11-22T02:03:01;11.70;74.40
72814;DHT22;60945;48.516;-2.768;2023-11-22T02:05:27;11.70;74.80
72814;DHT22;60945;48.516;-2.768;2023-11-22T02:07:53;11.70;75.10
72814;DHT22;60945;48.516;-2.768;2023-11-22T02:10:19;11.70;75.10
72814;DHT22;60945;48.516;-2.768;2023-11-22T02:12:44;11.60;75.80
72814;DHT22;60945;48.516;-2.768;2023-11-22T02:15:10;11.60;76.10
72814;DHT22;60945;48.516;-2.768;2023-11-22T02:17:37;11.60;76.60
72814;DHT22;60945;48.516;-2.768;2023-11-22T02:20:02;11.50;76.70
72814;DHT22;60945;48.516;-2.768;2023-11-22T02:22:31;11.50;76.80
72814;DHT22;60945;48.516;-2.768;2023-11-22T02:24:57;11.60;76.70
72814;DHT22;60945;48.516;-2.768;2023-11-22T02:27:23;11.60;76.20
72814;DHT22;60945;48.516;-2.768;2023-11-22T02:29:49;11.60;75.80
72814;DHT22;60945;48.516;-2.768;2023-11-22T02:32:15;11.70;75.40
72814;DHT22;60945;48.516;-2.768;2023-11-22T02:34:41;11.60;74.50
72814;DHT22;60945;48.516;-2.768;2023-11-22T02:37:06;11.60;74.10
72814;DHT22;60945;48.516;-2.768;2023-11-22T02:39:44;11.60;74.40
72814;DHT22;60945;48.516;-2.768;2023-11-22T02:42:13;11.60;74.30
72814;DHT22;60945;48.516;-2.768;2023-11-22T02:44:39;11.50;72.90
72814;DHT22;60945;48.516;-2.768;2023-11-22T02:47:05;11.60;72.30
72814;DHT22;60945;48.516;-2.768;2023-11-22T02:49:31;11.50;71.70
72814;DHT22;60945;48.516;-2.768;2023-11-22T02:51:56;11.60;70.80
72814;DHT22;60945;48.516;-2.768;2023-11-22T02:54:22;11.50;70.40
72814;DHT22;60945;48.516;-2.768;2023-11-22T02:56:47;11.50;70.60
72814;DHT22;60945;48.516;-2.768;2023-11-22T02:59:13;11.50;70.80
72814;DHT22;60945;48.516;-2.768;2023-11-22T03:01:39;11.50;70.00
72814;DHT22;60945;48.516;-2.768;2023-11-22T03:04:08;11.40;69.80
72814;DHT22;60945;48.516;-2.768;2023-11-22T03:06:35;11.50;69.30
72814;DHT22;60945;48.516;-2.768;2023-11-22T03:09:01;11.40;69.40
72814;DHT22;60945;48.516;-2.768;2023-11-22T03:11:27;11.50;69.20
72814;DHT22;60945;48.516;-2.768;2023-11-22T03:13:54;11.50;68.60
72814;DHT22;60945;48.516;-2.768;2023-11-22T03:16:20;11.50;69.00
72814;DHT22;60945;48.516;-2.768;2023-11-22T03:18:45;11.60;68.60
72814;DHT22;60945;48.516;-2.768;2023-11-22T03:21:11;11.50;68.10
72814;DHT22;60945;48.516;-2.768;2023-11-22T03:23:37;11.40;68.10
72814;DHT22;60945;48.516;-2.768;2023-11-22T03:26:04;11.50;68.40
72814;DHT22;60945;48.516;-2.768;2023-11-22T03:28:29;11.50;68.00
72814;DHT22;60945;48.516;-2.768;2023-11-22T03:30:56;11.40;68.30
72814;DHT22;60945;48.516;-2.768;2023-11-22T03:33:22;11.40;67.90
72814;DHT22;60945;48.516;-2.768;2023-11-22T03:35:47;11.40;68.00
72814;DHT22;60945;48.516;-2.768;2023-11-22T03:38:13;11.50;67.60
72814;DHT22;60945;48.516;-2.768;2023-11-22T03:40:39;11.50;68.10
72814;DHT22;60945;48.516;-2.768;2023-11-22T03:43:05;11.50;67.50
72814;DHT22;60945;48.516;-2.768;2023-11-22T03:45:33;11.40;67.90
72814;DHT22;60945;48.516;-2.768;2023-11-22T03:47:59;11.40;68.10
72814;DHT22;60945;48.516;-2.768;2023-11-22T03:50:24;11.40;68.00
72814;DHT22;60945;48.516;-2.768;2023-11-22T03:52:50;11.30;68.20
72814;DHT22;60945;48.516;-2.768;2023-11-22T03:55:16;11.40;68.10
72814;DHT22;60945;48.516;-2.768;2023-11-22T03:57:41;11.30;68.40
72814;DHT22;60945;48.516;-2.768;2023-11-22T04:00:07;11.30;67.20
72814;DHT22;60945;48.516;-2.768;2023-11-22T04:02:34;11.30;66.90
72814;DHT22;60945;48.516;-2.768;2023-11-22T04:05:00;11.20;66.80
72814;DHT22;60945;48.516;-2.768;2023-11-22T04:07:26;11.30;66.80
72814;DHT22;60945;48.516;-2.768;2023-11-22T04:09:55;11.30;66.60
72814;DHT22;60945;48.516;-2.768;2023-11-22T04:12:21;11.40;66.90
72814;DHT22;60945;48.516;-2.768;2023-11-22T04:14:46;11.40;67.00
72814;DHT22;60945;48.516;-2.768;2023-11-22T04:17:12;11.30;67.30
72814;DHT22;60945;48.516;-2.768;2023-11-22T04:19:38;11.30;67.50
72814;DHT22;60945;48.516;-2.768;2023-11-22T04:22:03;11.30;67.40
72814;DHT22;60945;48.516;-2.768;2023-11-22T04:24:29;11.40;67.20
72814;DHT22;60945;48.516;-2.768;2023-11-22T04:26:54;11.50;67.40
72814;DHT22;60945;48.516;-2.768;2023-11-22T04:29:20;11.40;67.70
72814;DHT22;60945;48.516;-2.768;2023-11-22T04:31:46;11.30;67.80
72814;DHT22;60945;48.516;-2.768;2023-11-22T04:34:11;11.40;67.70
72814;DHT22;60945;48.516;-2.768;2023-11-22T04:36:37;11.50;67.80
72814;DHT22;60945;48.516;-2.768;2023-11-22T04:39:04;11.50;67.80
72814;DHT22;60945;48.516;-2.768;2023-11-22T04:41:32;11.50;67.80
72814;DHT22;60945;48.516;-2.768;2023-11-22T04:43:58;11.50;68.00
72814;DHT22;60945;48.516;-2.768;2023-11-22T04:46:23;11.40;68.50
72814;DHT22;60945;48.516;-2.768;2023-11-22T04:48:52;11.50;69.00
72814;DHT22;60945;48.516;-2.768;2023-11-22T04:51:17;11.50;68.70
72814;DHT22;60945;48.516;-2.768;2023-11-22T04:53:43;11.50;69.00
72814;DHT22;60945;48.516;-2.768;2023-11-22T04:56:09;11.60;68.90
72814;DHT22;60945;48.516;-2.768;2023-11-22T04:58:35;11.60;69.20
72814;DHT22;60945;48.516;-2.768;2023-11-22T05:01:01;11.60;69.40
72814;DHT22;60945;48.516;-2.768;2023-11-22T05:03:27;11.60;69.40
72814;DHT22;60945;48.516;-2.768;2023-11-22T05:05:53;11.50;69.50
72814;DHT22;60945;48.516;-2.768;2023-11-22T05:08:18;11.50;69.50
72814;DHT22;60945;48.516;-2.768;2023-11-22T05:10:44;11.40;69.10
72814;DHT22;60945;48.516;-2.768;2023-11-22T05:13:10;11.40;69.20
72814;DHT22;60945;48.516;-2.768;2023-11-22T05:15:36;11.50;68.60
72814;DHT22;60945;48.516;-2.768;2023-11-22T05:18:02;11.60;68.60
72814;DHT22;60945;48.516;-2.768;2023-11-22T05:20:27;11.50;69.60
72814;DHT22;60945;48.516;-2.768;2023-11-22T05:22:53;11.50;70.60
72814;DHT22;60945;48.516;-2.768;2023-11-22T05:25:19;11.50;70.80
72814;DHT22;60945;48.516;-2.768;2023-11-22T05:27:44;11.50;71.60
72814;DHT22;60945;48.516;-2.768;2023-11-22T05:30:10;11.50;72.00
72814;DHT22;60945;48.516;-2.768;2023-11-22T05:32:36;11.60;70.90
72814;DHT22;60945;48.516;-2.768;2023-11-22T05:35:02;11.50;71.20
72814;DHT22;60945;48.516;-2.768;2023-11-22T05:37:28;11.40;71.60
72814;DHT22;60945;48.516;-2.768;2023-11-22T05:39:54;11.50;70.90
72814;DHT22;60945;48.516;-2.768;2023-11-22T05:42:20;11.30;70.70
72814;DHT22;60945;48.516;-2.768;2023-11-22T05:44:46;11.20;70.80
72814;DHT22;60945;48.516;-2.768;2023-11-22T05:47:12;11.20;71.00
72814;DHT22;60945;48.516;-2.768;2023-11-22T05:49:38;11.20;71.20
72814;DHT22;60945;48.516;-2.768;2023-11-22T05:52:04;11.10;71.50
72814;DHT22;60945;48.516;-2.768;2023-11-22T05:54:30;11.20;71.20
72814;DHT22;60945;48.516;-2.768;2023-11-22T05:56:57;11.10;70.60
72814;DHT22;60945;48.516;-2.768;2023-11-22T05:59:22;11.00;70.80
72814;DHT22;60945;48.516;-2.768;2023-11-22T06:01:49;10.90;70.80
72814;DHT22;60945;48.516;-2.768;2023-11-22T06:04:15;10.90;70.80
72814;DHT22;60945;48.516;-2.768;2023-11-22T06:06:40;10.90;70.90
72814;DHT22;60945;48.516;-2.768;2023-11-22T06:09:06;10.80;71.30
72814;DHT22;60945;48.516;-2.768;2023-11-22T06:11:32;10.90;71.20
72814;DHT22;60945;48.516;-2.768;2023-11-22T06:13:59;10.80;71.10
72814;DHT22;60945;48.516;-2.768;2023-11-22T06:16:24;10.70;71.10
72814;DHT22;60945;48.516;-2.768;2023-11-22T06:18:50;10.80;70.30
72814;DHT22;60945;48.516;-2.768;2023-11-22T06:21:16;10.80;70.20
72814;DHT22;60945;48.516;-2.768;2023-11-22T06:23:42;10.70;70.60
72814;DHT22;60945;48.516;-2.768;2023-11-22T06:26:07;10.60;70.10
72814;DHT22;60945;48.516;-2.768;2023-11-22T06:28:33;10.70;69.20
72814;DHT22;60945;48.516;-2.768;2023-11-22T06:31:00;10.60;69.30
72814;DHT22;60945;48.516;-2.768;2023-11-22T06:33:25;10.50;69.80
72814;DHT22;60945;48.516;-2.768;2023-11-22T06:35:51;10.60;69.30
72814;DHT22;60945;48.516;-2.768;2023-11-22T06:38:17;10.60;68.90
72814;DHT22;60945;48.516;-2.768;2023-11-22T06:40:43;10.70;68.60
72814;DHT22;60945;48.516;-2.768;2023-11-22T06:43:09;10.70;68.10
72814;DHT22;60945;48.516;-2.768;2023-11-22T06:45:34;10.60;68.30
72814;DHT22;60945;48.516;-2.768;2023-11-22T06:48:00;10.60;68.50
72814;DHT22;60945;48.516;-2.768;2023-11-22T06:50:26;10.60;68.60
72814;DHT22;60945;48.516;-2.768;2023-11-22T06:52:52;10.50;68.50
72814;DHT22;60945;48.516;-2.768;2023-11-22T06:55:18;10.60;68.50
72814;DHT22;60945;48.516;-2.768;2023-11-22T06:57:44;10.50;68.10
72814;DHT22;60945;48.516;-2.768;2023-11-22T07:00:10;10.60;67.90
72814;DHT22;60945;48.516;-2.768;2023-11-22T07:02:37;10.80;67.70
72814;DHT22;60945;48.516;-2.768;2023-11-22T07:05:04;10.70;67.60
72814;DHT22;60945;48.516;-2.768;2023-11-22T07:07:37;10.70;67.70
72814;DHT22;60945;48.516;-2.768;2023-11-22T07:10:03;10.60;67.70
72814;DHT22;60945;48.516;-2.768;2023-11-22T07:12:35;10.70;67.80
72814;DHT22;60945;48.516;-2.768;2023-11-22T07:15:01;10.60;68.30
72814;DHT22;60945;48.516;-2.768;2023-11-22T07:17:28;10.60;68.60
72814;DHT22;60945;48.516;-2.768;2023-11-22T07:19:54;10.60;68.60
72814;DHT22;60945;48.516;-2.768;2023-11-22T07:22:20;10.70;68.60
72814;DHT22;60945;48.516;-2.768;2023-11-22T07:24:48;10.80;68.30
72814;DHT22;60945;48.516;-2.768;2023-11-22T07:27:18;10.80;68.30
72814;DHT22;60945;48.516;-2.768;2023-11-22T07:29:44;10.70;68.40
72814;DHT22;60945;48.516;-2.768;2023-11-22T07:32:11;10.70;68.40
72814;DHT22;60945;48.516;-2.768;2023-11-22T07:34:39;10.60;68.80
72814;DHT22;60945;48.516;-2.768;2023-11-22T07:37:05;10.70;69.00
72814;DHT22;60945;48.516;-2.768;2023-11-22T07:39:33;10.70;68.90
72814;DHT22;60945;48.516;-2.768;2023-11-22T07:42:03;10.70;68.90
72814;DHT22;60945;48.516;-2.768;2023-11-22T07:44:29;10.80;68.80
72814;DHT22;60945;48.516;-2.768;2023-11-22T07:46:58;10.80;68.60
72814;DHT22;60945;48.516;-2.768;2023-11-22T07:49:24;10.90;68.80
72814;DHT22;60945;48.516;-2.768;2023-11-22T07:51:50;11.00;68.90
72814;DHT22;60945;48.516;-2.768;2023-11-22T07:54:19;11.10;68.90
72814;DHT22;60945;48.516;-2.768;2023-11-22T07:56:51;11.10;68.60
72814;DHT22;60945;48.516;-2.768;2023-11-22T07:59:18;11.20;68.80
72814;DHT22;60945;48.516;-2.768;2023-11-22T08:01:44;11.30;68.70
72814;DHT22;60945;48.516;-2.768;2023-11-22T08:04:10;11.40;68.70
72814;DHT22;60945;48.516;-2.768;2023-11-22T08:06:36;11.30;68.80
72814;DHT22;60945;48.516;-2.768;2023-11-22T08:09:02;11.40;69.20
72814;DHT22;60945;48.516;-2.768;2023-11-22T08:11:29;11.40;69.00
72814;DHT22;60945;48.516;-2.768;2023-11-22T08:13:55;11.30;69.20
72814;DHT22;60945;48.516;-2.768;2023-11-22T08:16:25;11.40;69.20
72814;DHT22;60945;48.516;-2.768;2023-11-22T08:18:51;11.30;69.40
72814;DHT22;60945;48.516;-2.768;2023-11-22T08:21:16;11.30;68.90
72814;DHT22;60945;48.516;-2.768;2023-11-22T08:23:42;11.30;69.20
72814;DHT22;60945;48.516;-2.768;2023-11-22T08:26:08;11.40;68.80
72814;DHT22;60945;48.516;-2.768;2023-11-22T08:28:34;11.40;68.60
72814;DHT22;60945;48.516;-2.768;2023-11-22T08:31:00;11.40;68.60
72814;DHT22;60945;48.516;-2.768;2023-11-22T08:33:29;11.40;68.30
72814;DHT22;60945;48.516;-2.768;2023-11-22T08:35:55;11.40;68.20
72814;DHT22;60945;48.516;-2.768;2023-11-22T08:38:26;11.30;68.10
72814;DHT22;60945;48.516;-2.768;2023-11-22T08:40:52;11.30;68.30
72814;DHT22;60945;48.516;-2.768;2023-11-22T08:43:18;11.30;68.20
72814;DHT22;60945;48.516;-2.768;2023-11-22T08:45:48;11.40;68.20
72814;DHT22;60945;48.516;-2.768;2023-11-22T08:48:14;11.40;68.20
72814;DHT22;60945;48.516;-2.768;2023-11-22T08:50:41;11.40;67.90
72814;DHT22;60945;48.516;-2.768;2023-11-22T08:53:06;11.60;67.50
72814;DHT22;60945;48.516;-2.768;2023-11-22T08:55:33;11.90;66.80
72814;DHT22;60945;48.516;-2.768;2023-11-22T08:57:59;12.50;65.30
72814;DHT22;60945;48.516;-2.768;2023-11-22T09:00:25;12.70;64.40
72814;DHT22;60945;48.516;-2.768;2023-11-22T09:02:54;13.80;61.10
72814;DHT22;60945;48.516;-2.768;2023-11-22T09:05:20;15.00;57.50
72814;DHT22;60945;48.516;-2.768;2023-11-22T09:07:47;15.90;54.80
72814;DHT22;60945;48.516;-2.768;2023-11-22T09:10:13;16.10;53.90
72814;DHT22;60945;48.516;-2.768;2023-11-22T09:12:41;15.80;54.00
72814;DHT22;60945;48.516;-2.768;2023-11-22T09:15:11;14.60;57.00
72814;DHT22;60945;48.516;-2.768;2023-11-22T09:17:38;13.80;59.50
72814;DHT22;60945;48.516;-2.768;2023-11-22T09:20:18;13.40;60.80
72814;DHT22;60945;48.516;-2.768;2023-11-22T09:22:48;12.90;61.80
72814;DHT22;60945;48.516;-2.768;2023-11-22T09:25:19;12.70;62.90
72814;DHT22;60945;48.516;-2.768;2023-11-22T09:27:45;12.60;63.10
72814;DHT22;60945;48.516;-2.768;2023-11-22T09:30:15;12.60;63.50
72814;DHT22;60945;48.516;-2.768;2023-11-22T09:33:00;12.60;63.60
72814;DHT22;60945;48.516;-2.768;2023-11-22T09:35:27;12.80;63.40
72814;DHT22;60945;48.516;-2.768;2023-11-22T09:37:55;12.70;63.50
72814;DHT22;60945;48.516;-2.768;2023-11-22T09:40:22;12.70;63.20
72814;DHT22;60945;48.516;-2.768;2023-11-22T09:42:48;12.90;62.10
72814;DHT22;60945;48.516;-2.768;2023-11-22T09:45:20;12.90;61.90
72814;DHT22;60945;48.516;-2.768;2023-11-22T09:47:46;13.00;61.70
72814;DHT22;60945;48.516;-2.768;2023-11-22T09:53:00;13.50;60.60
72814;DHT22;60945;48.516;-2.768;2023-11-22T09:55:28;13.60;60.20
72814;DHT22;60945;48.516;-2.768;2023-11-22T09:57:57;13.70;60.00
72814;DHT22;60945;48.516;-2.768;2023-11-22T10:00:25;13.80;58.60
72814;DHT22;60945;48.516;-2.768;2023-11-22T10:02:53;13.60;59.00
72814;DHT22;60945;48.516;-2.768;2023-11-22T10:05:19;13.60;58.90
72814;DHT22;60945;48.516;-2.768;2023-11-22T10:07:46;13.50;58.90
72814;DHT22;60945;48.516;-2.768;2023-11-22T10:10:16;13.50;59.50
72814;DHT22;60945;48.516;-2.768;2023-11-22T10:12:44;13.70;59.20
72814;DHT22;60945;48.516;-2.768;2023-11-22T10:15:13;13.80;58.80
72814;DHT22;60945;48.516;-2.768;2023-11-22T10:17:39;13.60;59.00
72814;DHT22;60945;48.516;-2.768;2023-11-22T10:20:05;13.60;60.10
72814;DHT22;60945;48.516;-2.768;2023-11-22T10:22:44;13.70;59.50
72814;DHT22;60945;48.516;-2.768;2023-11-22T10:25:11;13.90;59.30
72814;DHT22;60945;48.516;-2.768;2023-11-22T10:27:38;14.00;58.80
72814;DHT22;60945;48.516;-2.768;2023-11-22T10:30:07;13.70;59.30
72814;DHT22;60945;48.516;-2.768;2023-11-22T10:32:37;13.60;59.40
72814;DHT22;60945;48.516;-2.768;2023-11-22T10:35:05;13.40;60.10
72814;DHT22;60945;48.516;-2.768;2023-11-22T10:37:31;13.30;60.70
72814;DHT22;60945;48.516;-2.768;2023-11-22T10:39:57;13.60;60.60
72814;DHT22;60945;48.516;-2.768;2023-11-22T10:42:24;13.90;59.50
72814;DHT22;60945;48.516;-2.768;2023-11-22T10:44:55;13.80;59.40
72814;DHT22;60945;48.516;-2.768;2023-11-22T10:47:23;13.90;59.70
72814;DHT22;60945;48.516;-2.768;2023-11-22T10:49:49;13.90;59.00
72814;DHT22;60945;48.516;-2.768;2023-11-22T10:52:18;13.70;59.90
72814;DHT22;60945;48.516;-2.768;2023-11-22T10:54:49;13.90;59.70
72814;DHT22;60945;48.516;-2.768;2023-11-22T10:57:19;13.90;59.10
72814;DHT22;60945;48.516;-2.768;2023-11-22T10:59:53;13.80;59.60
72814;DHT22;60945;48.516;-2.768;2023-11-22T11:02:21;13.60;59.80
72814;DHT22;60945;48.516;-2.768;2023-11-22T11:04:59;13.70;60.20
72814;DHT22;60945;48.516;-2.768;2023-11-22T11:07:30;13.70;60.60
72814;DHT22;60945;48.516;-2.768;2023-11-22T11:09:59;13.70;59.30
72814;DHT22;60945;48.516;-2.768;2023-11-22T11:12:26;13.70;59.50
72814;DHT22;60945;48.516;-2.768;2023-11-22T11:14:52;14.00;59.10
72814;DHT22;60945;48.516;-2.768;2023-11-22T11:17:18;14.00;58.20
72814;DHT22;60945;48.516;-2.768;2023-11-22T11:19:44;13.80;58.90
72814;DHT22;60945;48.516;-2.768;2023-11-22T11:22:11;13.80;58.50
72814;DHT22;60945;48.516;-2.768;2023-11-22T11:24:40;13.90;58.50
72814;DHT22;60945;48.516;-2.768;2023-11-22T11:27:10;13.90;57.70
72814;DHT22;60945;48.516;-2.768;2023-11-22T11:29:39;14.00;57.70
72814;DHT22;60945;48.516;-2.768;2023-11-22T11:32:17;14.00;58.00
72814;DHT22;60945;48.516;-2.768;2023-11-22T11:34:56;13.80;58.30
72814;DHT22;60945;48.516;-2.768;2023-11-22T11:37:21;13.80;58.90
72814;DHT22;60945;48.516;-2.768;2023-11-22T11:39:48;13.80;59.10
72814;DHT22;60945;48.516;-2.768;2023-11-22T11:42:13;13.80;58.80
72814;DHT22;60945;48.516;-2.768;2023-11-22T11:47:27;13.30;59.30
72814;DHT22;60945;48.516;-2.768;2023-11-22T11:49:52;13.30;59.20
72814;DHT22;60945;48.516;-2.768;2023-11-22T11:52:20;13.40;59.60
72814;DHT22;60945;48.516;-2.768;2023-11-22T11:54:46;13.60;59.30
72814;DHT22;60945;48.516;-2.768;2023-11-22T11:57:11;13.60;59.20
72814;DHT22;60945;48.516;-2.768;2023-11-22T11:59:38;13.40;59.60
72814;DHT22;60945;48.516;-2.768;2023-11-22T12:02:03;13.30;60.00
72814;DHT22;60945;48.516;-2.768;2023-11-22T12:04:31;13.20;60.20
72814;DHT22;60945;48.516;-2.768;2023-11-22T12:06:58;13.30;60.40
72814;DHT22;60945;48.516;-2.768;2023-11-22T12:09:27;13.20;60.40
72814;DHT22;60945;48.516;-2.768;2023-11-22T12:11:56;13.10;60.50
72814;DHT22;60945;48.516;-2.768;2023-11-22T12:14:23;13.10;61.00
72814;DHT22;60945;48.516;-2.768;2023-11-22T12:16:52;13.10;61.00
72814;DHT22;60945;48.516;-2.768;2023-11-22T12:19:27;13.10;60.90
72814;DHT22;60945;48.516;-2.768;2023-11-22T12:21:54;13.00;60.30
72814;DHT22;60945;48.516;-2.768;2023-11-22T12:24:20;13.00;60.60
72814;DHT22;60945;48.516;-2.768;2023-11-22T12:26:50;13.10;60.20
72814;DHT22;60945;48.516;-2.768;2023-11-22T12:29:16;13.00;59.90
72814;DHT22;60945;48.516;-2.768;2023-11-22T12:31:50;13.10;59.70
72814;DHT22;60945;48.516;-2.768;2023-11-22T12:34:18;13.20;59.30
72814;DHT22;60945;48.516;-2.768;2023-11-22T12:36:45;13.20;59.30
72814;DHT22;60945;48.516;-2.768;2023-11-22T12:39:13;13.20;59.30
72814;DHT22;60945;48.516;-2.768;2023-11-22T12:41:50;13.20;60.10
72814;DHT22;60945;48.516;-2.768;2023-11-22T12:44:18;13.10;59.60
72814;DHT22;60945;48.516;-2.768;2023-11-22T12:46:46;13.00;60.20
72814;DHT22;60945;48.516;-2.768;2023-11-22T12:49:15;12.80;61.10
72814;DHT22;60945;48.516;-2.768;2023-11-22T12:51:52;12.90;61.00
72814;DHT22;60945;48.516;-2.768;2023-11-22T12:54:18;13.00;61.10
72814;DHT22;60945;48.516;-2.768;2023-11-22T12:56:50;13.00;61.30
72814;DHT22;60945;48.516;-2.768;2023-11-22T12:59:16;13.10;61.20
72814;DHT22;60945;48.516;-2.768;2023-11-22T13:01:44;13.30;61.20
72814;DHT22;60945;48.516;-2.768;2023-11-22T13:04:10;13.20;61.40
72814;DHT22;60945;48.516;-2.768;2023-11-22T13:06:36;13.30;61.90
72814;DHT22;60945;48.516;-2.768;2023-11-22T13:09:03;13.20;61.80
72814;DHT22;60945;48.516;-2.768;2023-11-22T13:11:28;13.30;61.80
72814;DHT22;60945;48.516;-2.768;2023-11-22T13:13:54;13.40;61.50
72814;DHT22;60945;48.516;-2.768;2023-11-22T13:16:20;13.20;61.50
72814;DHT22;60945;48.516;-2.768;2023-11-22T13:18:46;13.30;62.00
72814;DHT22;60945;48.516;-2.768;2023-11-22T13:21:13;13.30;61.50
72814;DHT22;60945;48.516;-2.768;2023-11-22T13:23:39;13.30;61.60
72814;DHT22;60945;48.516;-2.768;2023-11-22T13:26:05;13.30;61.70
72814;DHT22;60945;48.516;-2.768;2023-11-22T13:28:31;13.20;62.20
72814;DHT22;60945;48.516;-2.768;2023-11-22T13:30:56;13.40;61.70
72814;DHT22;60945;48.516;-2.768;2023-11-22T13:33:22;13.60;61.60
72814;DHT22;60945;48.516;-2.768;2023-11-22T13:35:48;14.00;60.10
72814;DHT22;60945;48.516;-2.768;2023-11-22T13:38:14;14.60;58.20
72814;DHT22;60945;48.516;-2.768;2023-11-22T13:40:41;15.10;55.90
72814;DHT22;60945;48.516;-2.768;2023-11-22T13:43:11;15.00;55.90
72814;DHT22;60945;48.516;-2.768;2023-11-22T13:45:38;14.90;56.50
72814;DHT22;60945;48.516;-2.768;2023-11-22T13:48:06;14.70;56.60
72814;DHT22;60945;48.516;-2.768;2023-11-22T13:50:35;14.30;57.60
72814;DHT22;60945;48.516;-2.768;2023-11-22T13:53:01;14.20;58.50
72814;DHT22;60945;48.516;-2.768;2023-11-22T13:55:29;14.20;58.60
72814;DHT22;60945;48.516;-2.768;2023-11-22T13:57:57;15.10;57.00
72814;DHT22;60945;48.516;-2.768;2023-11-22T14:00:28;16.20;53.60
72814;DHT22;60945;48.516;-2.768;2023-11-22T14:02:57;17.80;50.20
72814;DHT22;60945;48.516;-2.768;2023-11-22T14:05:29;19.00;46.60
72814;DHT22;60945;48.516;-2.768;2023-11-22T14:07:55;20.00;44.40
72814;DHT22;60945;48.516;-2.768;2023-11-22T14:10:21;20.30;44.10
72814;DHT22;60945;48.516;-2.768;2023-11-22T14:12:48;20.70;42.80
72814;DHT22;60945;48.516;-2.768;2023-11-22T14:15:14;21.50;41.90
72814;DHT22;60945;48.516;-2.768;2023-11-22T14:17:41;21.80;40.70
72814;DHT22;60945;48.516;-2.768;2023-11-22T14:20:07;22.00;40.60
72814;DHT22;60945;48.516;-2.768;2023-11-22T14:22:35;22.30;39.70
72814;DHT22;60945;48.516;-2.768;2023-11-22T14:25:01;22.70;38.80
72814;DHT22;60945;48.516;-2.768;2023-11-22T14:27:27;22.60;38.50
72814;DHT22;60945;48.516;-2.768;2023-11-22T14:29:55;22.50;38.70
72814;DHT22;60945;48.516;-2.768;2023-11-22T14:32:21;22.60;39.10
72814;DHT22;60945;48.516;-2.768;2023-11-22T14:34:47;22.40;38.80
72814;DHT22;60945;48.516;-2.768;2023-11-22T14:37:13;22.60;38.90
72814;DHT22;60945;48.516;-2.768;2023-11-22T14:39:39;22.80;38.60
72814;DHT22;60945;48.516;-2.768;2023-11-22T14:42:05;22.50;38.60
72814;DHT22;60945;48.516;-2.768;2023-11-22T14:44:32;22.40;39.70
72814;DHT22;60945;48.516;-2.768;2023-11-22T14:46:58;23.00;38.40
72814;DHT22;60945;48.516;-2.768;2023-11-22T14:49:24;22.20;39.20
72814;DHT22;60945;48.516;-2.768;2023-11-22T14:51:51;20.00;43.10
72814;DHT22;60945;48.516;-2.768;2023-11-22T14:54:17;18.90;46.00
72814;DHT22;60945;48.516;-2.768;2023-11-22T14:56:42;17.80;48.50
72814;DHT22;60945;48.516;-2.768;2023-11-22T14:59:10;17.10;50.50
72814;DHT22;60945;48.516;-2.768;2023-11-22T15:01:35;16.50;52.30
72814;DHT22;60945;48.516;-2.768;2023-11-22T15:04:01;16.00;53.90
72814;DHT22;60945;48.516;-2.768;2023-11-22T15:06:27;15.60;55.00
72814;DHT22;60945;48.516;-2.768;2023-11-22T15:08:53;15.30;56.50
72814;DHT22;60945;48.516;-2.768;2023-11-22T15:11:18;15.10;55.90
72814;DHT22;60945;48.516;-2.768;2023-11-22T15:13:44;14.90;57.00
72814;DHT22;60945;48.516;-2.768;2023-11-22T15:16:10;14.60;58.70
72814;DHT22;60945;48.516;-2.768;2023-11-22T15:18:38;14.40;57.70